sensor_id;sensor_type;location;lat;lon;timestamp;P1;durP1;ratioP1;P2;durP2;ratioP2
25657;SDS011;13517;59.320;18.042;2022-12-18T00:01:29;37.95;;;15.95;;
25657;SDS011;13517;59.320;18.042;2022-12-18T00:03:56;33.28;;;16.13;;
25657;SDS011;13517;59.320;18.042;2022-12-18T00:06:22;37.55;;;16.38;;
25657;SDS011;13517;59.320;18.042;2022-12-18T00:08:49;40.58;;;16.13;;
25657;SDS011;13517;59.320;18.042;2022-12-18T00:11:15;35.67;;;15.77;;
25657;SDS011;13517;59.320;18.042;2022-12-18T00:13:44;37.40;;;15.07;;
25657;SDS011;13517;59.320;18.042;2022-12-18T00:16:11;34.42;;;15.40;;
25657;SDS011;13517;59.320;18.042;2022-12-18T00:18:39;32.50;;;15.52;;
25657;SDS011;13517;59.320;18.042;2022-12-18T00:21:06;39.38;;;14.75;;
25657;SDS011;13517;59.320;18.042;2022-12-18T00:23:33;36.38;;;15.32;;
25657;SDS011;13517;59.320;18.042;2022-12-18T00:26:00;38.67;;;15.07;;
25657;SDS011;13517;59.320;18.042;2022-12-18T00:28:30;34.70;;;16.45;;
25657;SDS011;13517;59.320;18.042;2022-12-18T00:31:02;34.97;;;15.00;;
25657;SDS011;13517;59.320;18.042;2022-12-18T00:33:29;36.13;;;16.47;;
25657;SDS011;13517;59.320;18.042;2022-12-18T00:35:54;39.30;;;15.70;;
25657;SDS011;13517;59.320;18.042;2022-12-18T00:38:24;36.00;;;15.68;;
25657;SDS011;13517;59.320;18.042;2022-12-18T00:40:50;40.72;;;17.27;;
25657;SDS011;13517;59.320;18.042;2022-12-18T00:43:15;29.42;;;13.98;;
25657;SDS011;13517;59.320;18.042;2022-12-18T00:45:41;33.03;;;15.30;;
25657;SDS011;13517;59.320;18.042;2022-12-18T00:48:06;35.35;;;15.50;;
25657;SDS011;13517;59.320;18.042;2022-12-18T00:50:31;36.97;;;16.70;;
25657;SDS011;13517;59.320;18.042;2022-12-18T00:52:57;39.90;;;15.70;;
25657;SDS011;13517;59.320;18.042;2022-12-18T00:55:22;31.70;;;15.13;;
25657;SDS011;13517;59.320;18.042;2022-12-18T00:57:48;33.38;;;14.93;;
25657;SDS011;13517;59.320;18.042;2022-12-18T01:00:14;33.72;;;15.18;;
25657;SDS011;13517;59.320;18.042;2022-12-18T01:02:40;36.92;;;15.82;;
25657;SDS011;13517;59.320;18.042;2022-12-18T01:05:06;36.75;;;15.60;;
25657;SDS011;13517;59.320;18.042;2022-12-18T01:07:33;34.75;;;15.57;;
25657;SDS011;13517;59.320;18.042;2022-12-18T01:09:58;35.38;;;15.63;;
25657;SDS011;13517;59.320;18.042;2022-12-18T01:12:24;38.90;;;16.17;;
25657;SDS011;13517;59.320;18.042;2022-12-18T01:14:49;36.92;;;16.65;;
25657;SDS011;13517;59.320;18.042;2022-12-18T01:17:15;35.65;;;15.55;;
25657;SDS011;13517;59.320;18.042;2022-12-18T01:19:40;35.95;;;15.43;;
25657;SDS011;13517;59.320;18.042;2022-12-18T01:22:05;34.00;;;15.55;;
25657;SDS011;13517;59.320;18.042;2022-12-18T01:24:31;33.75;;;14.95;;
25657;SDS011;13517;59.320;18.042;2022-12-18T01:26:56;32.97;;;14.77;;
25657;SDS011;13517;59.320;18.042;2022-12-18T01:29:22;29.27;;;13.55;;
25657;SDS011;13517;59.320;18.042;2022-12-18T01:31:48;33.30;;;14.77;;
25657;SDS011;13517;59.320;18.042;2022-12-18T01:34:13;30.75;;;13.77;;
25657;SDS011;13517;59.320;18.042;2022-12-18T01:36:39;33.42;;;15.90;;
25657;SDS011;13517;59.320;18.042;2022-12-18T01:39:06;33.65;;;14.18;;
25657;SDS011;13517;59.320;18.042;2022-12-18T01:41:33;29.30;;;15.35;;
25657;SDS011;13517;59.320;18.042;2022-12-18T01:50:09;34.20;;;15.32;;
25657;SDS011;13517;59.320;18.042;2022-12-18T01:52:36;34.97;;;16.17;;
25657;SDS011;13517;59.320;18.042;2022-12-18T01:55:03;31.80;;;16.13;;
25657;SDS011;13517;59.320;18.042;2022-12-18T01:57:30;35.30;;;15.15;;
25657;SDS011;13517;59.320;18.042;2022-12-18T01:59:57;36.75;;;17.10;;
25657;SDS011;13517;59.320;18.042;2022-12-18T02:02:26;30.45;;;14.30;;
25657;SDS011;13517;59.320;18.042;2022-12-18T02:04:53;37.88;;;14.48;;
25657;SDS011;13517;59.320;18.042;2022-12-18T02:18:45;35.22;;;15.13;;
25657;SDS011;13517;59.320;18.042;2022-12-18T02:21:28;34.15;;;14.13;;
25657;SDS011;13517;59.320;18.042;2022-12-18T02:24:04;34.38;;;15.23;;
25657;SDS011;13517;59.320;18.042;2022-12-18T02:26:55;36.53;;;16.10;;
25657;SDS011;13517;59.320;18.042;2022-12-18T02:29:25;35.08;;;15.70;;
25657;SDS011;13517;59.320;18.042;2022-12-18T02:31:56;34.40;;;16.30;;
25657;SDS011;13517;59.320;18.042;2022-12-18T02:34:25;32.70;;;16.90;;
25657;SDS011;13517;59.320;18.042;2022-12-18T02:36:54;33.90;;;16.27;;
25657;SDS011;13517;59.320;18.042;2022-12-18T02:39:22;34.67;;;14.65;;
25657;SDS011;13517;59.320;18.042;2022-12-18T02:41:52;31.27;;;14.85;;
25657;SDS011;13517;59.320;18.042;2022-12-18T02:44:17;33.38;;;14.45;;
25657;SDS011;13517;59.320;18.042;2022-12-18T02:46:46;34.13;;;14.02;;
25657;SDS011;13517;59.320;18.042;2022-12-18T02:49:21;33.15;;;14.95;;
25657;SDS011;13517;59.320;18.042;2022-12-18T03:00:07;29.23;;;13.50;;
25657;SDS011;13517;59.320;18.042;2022-12-18T03:08:18;33.25;;;14.02;;
25657;SDS011;13517;59.320;18.042;2022-12-18T03:13:28;28.00;;;13.27;;
25657;SDS011;13517;59.320;18.042;2022-12-18T03:15:59;30.95;;;13.70;;
25657;SDS011;13517;59.320;18.042;2022-12-18T03:18:29;27.75;;;14.10;;
25657;SDS011;13517;59.320;18.042;2022-12-18T03:20:59;33.38;;;14.13;;
25657;SDS011;13517;59.320;18.042;2022-12-18T03:23:29;30.10;;;14.57;;
25657;SDS011;13517;59.320;18.042;2022-12-18T03:26:02;29.98;;;13.60;;
25657;SDS011;13517;59.320;18.042;2022-12-18T03:28:32;25.30;;;12.52;;
25657;SDS011;13517;59.320;18.042;2022-12-18T03:31:02;28.55;;;13.52;;
25657;SDS011;13517;59.320;18.042;2022-12-18T03:33:47;30.60;;;14.80;;
25657;SDS011;13517;59.320;18.042;2022-12-18T03:36:17;30.38;;;15.00;;
25657;SDS011;13517;59.320;18.042;2022-12-18T03:38:43;24.17;;;11.93;;
25657;SDS011;13517;59.320;18.042;2022-12-18T03:46:40;27.73;;;13.25;;
25657;SDS011;13517;59.320;18.042;2022-12-18T03:49:10;28.83;;;12.15;;
25657;SDS011;13517;59.320;18.042;2022-12-18T03:54:05;27.60;;;12.90;;
25657;SDS011;13517;59.320;18.042;2022-12-18T03:56:35;25.70;;;13.45;;
25657;SDS011;13517;59.320;18.042;2022-12-18T03:59:05;22.77;;;12.00;;
25657;SDS011;13517;59.320;18.042;2022-12-18T04:01:38;28.48;;;13.32;;
25657;SDS011;13517;59.320;18.042;2022-12-18T04:04:06;28.80;;;13.32;;
25657;SDS011;13517;59.320;18.042;2022-12-18T04:06:34;27.33;;;13.65;;
25657;SDS011;13517;59.320;18.042;2022-12-18T04:09:01;22.85;;;12.23;;
25657;SDS011;13517;59.320;18.042;2022-12-18T04:11:27;26.08;;;12.43;;
25657;SDS011;13517;59.320;18.042;2022-12-18T04:13:55;25.60;;;12.77;;
25657;SDS011;13517;59.320;18.042;2022-12-18T04:16:22;25.55;;;11.80;;
25657;SDS011;13517;59.320;18.042;2022-12-18T04:18:48;25.73;;;12.60;;
25657;SDS011;13517;59.320;18.042;2022-12-18T04:21:13;25.85;;;11.90;;
25657;SDS011;13517;59.320;18.042;2022-12-18T04:23:39;27.45;;;12.80;;
25657;SDS011;13517;59.320;18.042;2022-12-18T04:26:04;28.63;;;13.50;;
25657;SDS011;13517;59.320;18.042;2022-12-18T04:28:30;27.27;;;12.32;;
25657;SDS011;13517;59.320;18.042;2022-12-18T04:30:55;28.40;;;13.00;;
25657;SDS011;13517;59.320;18.042;2022-12-18T04:33:20;29.00;;;12.95;;
25657;SDS011;13517;59.320;18.042;2022-12-18T04:35:46;24.70;;;12.05;;
25657;SDS011;13517;59.320;18.042;2022-12-18T04:38:11;22.70;;;11.88;;
25657;SDS011;13517;59.320;18.042;2022-12-18T04:40:37;31.75;;;12.30;;
25657;SDS011;13517;59.320;18.042;2022-12-18T04:43:03;28.50;;;12.55;;
25657;SDS011;13517;59.320;18.042;2022-12-18T04:45:32;27.55;;;12.50;;
25657;SDS011;13517;59.320;18.042;2022-12-18T04:47:58;32.63;;;13.57;;
25657;SDS011;13517;59.320;18.042;2022-12-18T04:50:25;26.30;;;12.63;;
25657;SDS011;13517;59.320;18.042;2022-12-18T04:52:51;22.30;;;11.13;;
25657;SDS011;13517;59.320;18.042;2022-12-18T04:55:16;25.60;;;11.90;;
25657;SDS011;13517;59.320;18.042;2022-12-18T04:57:42;26.95;;;12.55;;
25657;SDS011;13517;59.320;18.042;2022-12-18T05:00:07;23.88;;;11.80;;
25657;SDS011;13517;59.320;18.042;2022-12-18T05:02:33;28.65;;;12.23;;
25657;SDS011;13517;59.320;18.042;2022-12-18T05:04:58;26.85;;;12.27;;
25657;SDS011;13517;59.320;18.042;2022-12-18T05:07:24;25.05;;;11.10;;
25657;SDS011;13517;59.320;18.042;2022-12-18T05:09:49;23.98;;;11.70;;
25657;SDS011;13517;59.320;18.042;2022-12-18T05:12:15;25.02;;;12.48;;
25657;SDS011;13517;59.320;18.042;2022-12-18T05:14:40;25.15;;;11.88;;
25657;SDS011;13517;59.320;18.042;2022-12-18T05:17:06;20.50;;;10.70;;
25657;SDS011;13517;59.320;18.042;2022-12-18T05:19:31;26.10;;;11.35;;
25657;SDS011;13517;59.320;18.042;2022-12-18T05:21:56;26.42;;;12.35;;
25657;SDS011;13517;59.320;18.042;2022-12-18T05:24:22;24.98;;;12.02;;
25657;SDS011;13517;59.320;18.042;2022-12-18T05:26:48;23.92;;;11.68;;
25657;SDS011;13517;59.320;18.042;2022-12-18T05:29:13;25.17;;;11.75;;
25657;SDS011;13517;59.320;18.042;2022-12-18T05:31:38;27.92;;;11.27;;
25657;SDS011;13517;59.320;18.042;2022-12-18T05:34:04;30.48;;;12.68;;
25657;SDS011;13517;59.320;18.042;2022-12-18T05:36:30;24.35;;;11.52;;
25657;SDS011;13517;59.320;18.042;2022-12-18T05:38:55;25.90;;;11.45;;
25657;SDS011;13517;59.320;18.042;2022-12-18T05:41:21;28.83;;;13.00;;
25657;SDS011;13517;59.320;18.042;2022-12-18T05:43:46;28.88;;;12.52;;
25657;SDS011;13517;59.320;18.042;2022-12-18T05:46:13;27.50;;;11.55;;
25657;SDS011;13517;59.320;18.042;2022-12-18T05:48:41;26.42;;;13.63;;
25657;SDS011;13517;59.320;18.042;2022-12-18T05:51:09;26.35;;;10.98;;
25657;SDS011;13517;59.320;18.042;2022-12-18T05:53:40;29.73;;;13.07;;
25657;SDS011;13517;59.320;18.042;2022-12-18T05:56:07;23.30;;;10.77;;
25657;SDS011;13517;59.320;18.042;2022-12-18T05:58:36;25.00;;;10.23;;
25657;SDS011;13517;59.320;18.042;2022-12-18T06:01:12;22.90;;;11.05;;
25657;SDS011;13517;59.320;18.042;2022-12-18T06:03:38;24.73;;;10.98;;
25657;SDS011;13517;59.320;18.042;2022-12-18T06:06:03;27.02;;;11.30;;
25657;SDS011;13517;59.320;18.042;2022-12-18T06:08:29;22.15;;;10.18;;
25657;SDS011;13517;59.320;18.042;2022-12-18T06:10:54;26.48;;;11.15;;
25657;SDS011;13517;59.320;18.042;2022-12-18T06:13:20;23.70;;;10.93;;
25657;SDS011;13517;59.320;18.042;2022-12-18T06:15:46;24.88;;;10.95;;
25657;SDS011;13517;59.320;18.042;2022-12-18T06:18:12;30.65;;;12.40;;
25657;SDS011;13517;59.320;18.042;2022-12-18T06:20:37;23.48;;;9.70;;
25657;SDS011;13517;59.320;18.042;2022-12-18T06:23:04;23.20;;;10.82;;
25657;SDS011;13517;59.320;18.042;2022-12-18T06:25:30;23.70;;;11.73;;
25657;SDS011;13517;59.320;18.042;2022-12-18T06:27:56;23.80;;;10.23;;
25657;SDS011;13517;59.320;18.042;2022-12-18T06:30:21;25.30;;;11.93;;
25657;SDS011;13517;59.320;18.042;2022-12-18T06:32:47;21.48;;;10.95;;
25657;SDS011;13517;59.320;18.042;2022-12-18T06:35:14;25.20;;;10.43;;
25657;SDS011;13517;59.320;18.042;2022-12-18T06:37:39;21.55;;;9.95;;
25657;SDS011;13517;59.320;18.042;2022-12-18T06:40:05;25.35;;;9.52;;
25657;SDS011;13517;59.320;18.042;2022-12-18T06:42:31;20.92;;;9.73;;
25657;SDS011;13517;59.320;18.042;2022-12-18T06:44:57;24.80;;;9.98;;
25657;SDS011;13517;59.320;18.042;2022-12-18T06:47:22;24.60;;;11.65;;
25657;SDS011;13517;59.320;18.042;2022-12-18T06:49:48;24.33;;;11.18;;
25657;SDS011;13517;59.320;18.042;2022-12-18T06:52:13;25.85;;;11.90;;
25657;SDS011;13517;59.320;18.042;2022-12-18T06:54:39;23.42;;;10.57;;
25657;SDS011;13517;59.320;18.042;2022-12-18T06:57:04;28.98;;;12.07;;
25657;SDS011;13517;59.320;18.042;2022-12-18T06:59:30;23.45;;;10.65;;
25657;SDS011;13517;59.320;18.042;2022-12-18T07:01:56;23.30;;;10.13;;
25657;SDS011;13517;59.320;18.042;2022-12-18T07:04:21;26.50;;;10.70;;
25657;SDS011;13517;59.320;18.042;2022-12-18T07:06:46;24.83;;;12.43;;
25657;SDS011;13517;59.320;18.042;2022-12-18T07:09:12;28.98;;;12.05;;
25657;SDS011;13517;59.320;18.042;2022-12-18T07:11:37;25.63;;;11.60;;
25657;SDS011;13517;59.320;18.042;2022-12-18T07:14:03;27.20;;;11.65;;
25657;SDS011;13517;59.320;18.042;2022-12-18T07:16:28;22.90;;;11.57;;
25657;SDS011;13517;59.320;18.042;2022-12-18T07:18:54;27.60;;;11.82;;
25657;SDS011;13517;59.320;18.042;2022-12-18T07:21:20;29.88;;;12.35;;
25657;SDS011;13517;59.320;18.042;2022-12-18T07:23:47;29.98;;;12.88;;
25657;SDS011;13517;59.320;18.042;2022-12-18T07:26:13;23.98;;;11.52;;
25657;SDS011;13517;59.320;18.042;2022-12-18T07:28:40;27.67;;;11.70;;
25657;SDS011;13517;59.320;18.042;2022-12-18T07:31:06;28.35;;;11.73;;
25657;SDS011;13517;59.320;18.042;2022-12-18T07:33:40;29.15;;;12.27;;
25657;SDS011;13517;59.320;18.042;2022-12-18T07:36:06;27.30;;;11.38;;
25657;SDS011;13517;59.320;18.042;2022-12-18T07:38:33;27.02;;;12.98;;
25657;SDS011;13517;59.320;18.042;2022-12-18T07:41:06;25.88;;;11.25;;
25657;SDS011;13517;59.320;18.042;2022-12-18T07:43:36;25.80;;;11.95;;
25657;SDS011;13517;59.320;18.042;2022-12-18T07:46:02;29.50;;;12.15;;
25657;SDS011;13517;59.320;18.042;2022-12-18T07:48:28;27.80;;;12.80;;
25657;SDS011;13517;59.320;18.042;2022-12-18T07:50:57;27.77;;;12.85;;
25657;SDS011;13517;59.320;18.042;2022-12-18T07:53:24;24.73;;;12.32;;
25657;SDS011;13517;59.320;18.042;2022-12-18T07:55:54;28.35;;;13.43;;
25657;SDS011;13517;59.320;18.042;2022-12-18T07:58:23;27.50;;;12.48;;
25657;SDS011;13517;59.320;18.042;2022-12-18T08:00:49;27.55;;;12.13;;
25657;SDS011;13517;59.320;18.042;2022-12-18T08:03:14;25.20;;;12.05;;
25657;SDS011;13517;59.320;18.042;2022-12-18T08:05:40;33.72;;;14.73;;
25657;SDS011;13517;59.320;18.042;2022-12-18T08:08:05;32.92;;;13.27;;
25657;SDS011;13517;59.320;18.042;2022-12-18T08:10:30;29.50;;;12.77;;
25657;SDS011;13517;59.320;18.042;2022-12-18T08:12:56;29.13;;;13.43;;
25657;SDS011;13517;59.320;18.042;2022-12-18T08:15:21;31.27;;;13.02;;
25657;SDS011;13517;59.320;18.042;2022-12-18T08:17:47;26.35;;;12.73;;
25657;SDS011;13517;59.320;18.042;2022-12-18T08:20:12;31.48;;;13.23;;
25657;SDS011;13517;59.320;18.042;2022-12-18T08:22:40;28.65;;;13.68;;
25657;SDS011;13517;59.320;18.042;2022-12-18T08:25:09;32.33;;;13.55;;
25657;SDS011;13517;59.320;18.042;2022-12-18T08:27:34;31.83;;;14.18;;
25657;SDS011;13517;59.320;18.042;2022-12-18T08:30:00;28.05;;;12.77;;
25657;SDS011;13517;59.320;18.042;2022-12-18T08:32:26;28.45;;;14.63;;
25657;SDS011;13517;59.320;18.042;2022-12-18T08:34:52;36.75;;;14.65;;
25657;SDS011;13517;59.320;18.042;2022-12-18T08:37:18;28.92;;;13.35;;
25657;SDS011;13517;59.320;18.042;2022-12-18T08:39:44;28.25;;;13.32;;
25657;SDS011;13517;59.320;18.042;2022-12-18T08:42:09;33.17;;;13.65;;
25657;SDS011;13517;59.320;18.042;2022-12-18T08:44:53;28.45;;;13.40;;
25657;SDS011;13517;59.320;18.042;2022-12-18T08:47:18;31.23;;;14.07;;
25657;SDS011;13517;59.320;18.042;2022-12-18T08:49:44;29.73;;;13.75;;
25657;SDS011;13517;59.320;18.042;2022-12-18T08:52:09;30.40;;;13.68;;
25657;SDS011;13517;59.320;18.042;2022-12-18T08:54:34;29.27;;;13.35;;
25657;SDS011;13517;59.320;18.042;2022-12-18T08:57:00;29.67;;;12.65;;
25657;SDS011;13517;59.320;18.042;2022-12-18T08:59:25;28.45;;;13.63;;
25657;SDS011;13517;59.320;18.042;2022-12-18T09:01:54;27.23;;;12.93;;
25657;SDS011;13517;59.320;18.042;2022-12-18T09:04:20;35.20;;;14.00;;
25657;SDS011;13517;59.320;18.042;2022-12-18T09:06:45;32.65;;;12.80;;
25657;SDS011;13517;59.320;18.042;2022-12-18T09:09:11;24.65;;;12.50;;
25657;SDS011;13517;59.320;18.042;2022-12-18T09:11:37;30.42;;;13.27;;
25657;SDS011;13517;59.320;18.042;2022-12-18T09:14:02;26.13;;;13.63;;
25657;SDS011;13517;59.320;18.042;2022-12-18T09:16:28;35.42;;;13.02;;
25657;SDS011;13517;59.320;18.042;2022-12-18T09:18:54;29.13;;;12.60;;
25657;SDS011;13517;59.320;18.042;2022-12-18T09:21:24;27.55;;;13.68;;
25657;SDS011;13517;59.320;18.042;2022-12-18T09:23:53;30.65;;;14.02;;
25657;SDS011;13517;59.320;18.042;2022-12-18T09:26:20;29.42;;;15.15;;
25657;SDS011;13517;59.320;18.042;2022-12-18T09:28:46;29.17;;;14.07;;
25657;SDS011;13517;59.320;18.042;2022-12-18T09:31:15;25.90;;;13.27;;
25657;SDS011;13517;59.320;18.042;2022-12-18T09:33:42;27.15;;;13.90;;
25657;SDS011;13517;59.320;18.042;2022-12-18T09:36:08;32.80;;;13.68;;
25657;SDS011;13517;59.320;18.042;2022-12-18T09:38:36;29.35;;;12.82;;
25657;SDS011;13517;59.320;18.042;2022-12-18T09:41:05;29.23;;;13.32;;
25657;SDS011;13517;59.320;18.042;2022-12-18T09:43:46;28.02;;;12.93;;
25657;SDS011;13517;59.320;18.042;2022-12-18T09:46:36;27.52;;;12.68;;
25657;SDS011;13517;59.320;18.042;2022-12-18T09:49:05;25.40;;;12.35;;
25657;SDS011;13517;59.320;18.042;2022-12-18T09:51:38;22.33;;;11.63;;
25657;SDS011;13517;59.320;18.042;2022-12-18T09:54:14;25.02;;;12.68;;
25657;SDS011;13517;59.320;18.042;2022-12-18T09:56:43;28.20;;;12.40;;
25657;SDS011;13517;59.320;18.042;2022-12-18T09:59:21;27.48;;;12.55;;
25657;SDS011;13517;59.320;18.042;2022-12-18T10:01:50;28.35;;;12.63;;
25657;SDS011;13517;59.320;18.042;2022-12-18T10:04:16;28.02;;;13.02;;
25657;SDS011;13517;59.320;18.042;2022-12-18T10:06:50;28.88;;;13.65;;
25657;SDS011;13517;59.320;18.042;2022-12-18T10:09:27;24.05;;;12.98;;
25657;SDS011;13517;59.320;18.042;2022-12-18T10:12:01;29.05;;;13.45;;
25657;SDS011;13517;59.320;18.042;2022-12-18T10:14:37;29.52;;;13.57;;
25657;SDS011;13517;59.320;18.042;2022-12-18T10:19:59;30.52;;;13.20;;
25657;SDS011;13517;59.320;18.042;2022-12-18T10:25:23;36.28;;;15.75;;
25657;SDS011;13517;59.320;18.042;2022-12-18T10:27:55;33.97;;;13.55;;
25657;SDS011;13517;59.320;18.042;2022-12-18T10:30:24;26.88;;;13.82;;
25657;SDS011;13517;59.320;18.042;2022-12-18T10:32:50;26.60;;;12.63;;
25657;SDS011;13517;59.320;18.042;2022-12-18T10:35:20;29.30;;;14.13;;
25657;SDS011;13517;59.320;18.042;2022-12-18T10:38:05;25.10;;;13.10;;
25657;SDS011;13517;59.320;18.042;2022-12-18T10:41:04;30.95;;;12.93;;
25657;SDS011;13517;59.320;18.042;2022-12-18T10:44:33;28.55;;;12.77;;
25657;SDS011;13517;59.320;18.042;2022-12-18T10:46:43;26.33;;;13.38;;
25657;SDS011;13517;59.320;18.042;2022-12-18T10:49:24;30.05;;;12.45;;
25657;SDS011;13517;59.320;18.042;2022-12-18T10:51:51;24.35;;;12.20;;
25657;SDS011;13517;59.320;18.042;2022-12-18T10:54:53;26.17;;;12.63;;
25657;SDS011;13517;59.320;18.042;2022-12-18T10:59:55;23.73;;;13.30;;
25657;SDS011;13517;59.320;18.042;2022-12-18T11:04:53;27.98;;;13.75;;
25657;SDS011;13517;59.320;18.042;2022-12-18T11:07:19;29.27;;;15.25;;
25657;SDS011;13517;59.320;18.042;2022-12-18T11:09:45;24.92;;;12.60;;
25657;SDS011;13517;59.320;18.042;2022-12-18T11:12:25;22.02;;;11.93;;
25657;SDS011;13517;59.320;18.042;2022-12-18T11:14:54;29.02;;;12.57;;
25657;SDS011;13517;59.320;18.042;2022-12-18T11:19:53;30.95;;;13.52;;
25657;SDS011;13517;59.320;18.042;2022-12-18T11:22:22;23.45;;;12.07;;
25657;SDS011;13517;59.320;18.042;2022-12-18T11:24:57;32.28;;;12.95;;
25657;SDS011;13517;59.320;18.042;2022-12-18T11:27:24;22.13;;;12.63;;
25657;SDS011;13517;59.320;18.042;2022-12-18T11:29:50;21.55;;;12.68;;
25657;SDS011;13517;59.320;18.042;2022-12-18T11:32:38;28.42;;;12.88;;
25657;SDS011;13517;59.320;18.042;2022-12-18T11:37:36;32.13;;;12.48;;
25657;SDS011;13517;59.320;18.042;2022-12-18T11:40:13;26.60;;;12.45;;
25657;SDS011;13517;59.320;18.042;2022-12-18T11:42:45;27.17;;;12.57;;
25657;SDS011;13517;59.320;18.042;2022-12-18T11:45:32;25.88;;;12.30;;
25657;SDS011;13517;59.320;18.042;2022-12-18T11:48:17;29.17;;;12.35;;
25657;SDS011;13517;59.320;18.042;2022-12-18T11:50:49;20.70;;;11.80;;
25657;SDS011;13517;59.320;18.042;2022-12-18T11:53:16;21.60;;;11.80;;
25657;SDS011;13517;59.320;18.042;2022-12-18T11:55:58;24.40;;;12.52;;
25657;SDS011;13517;59.320;18.042;2022-12-18T11:58:36;25.70;;;11.35;;
25657;SDS011;13517;59.320;18.042;2022-12-18T12:01:50;24.23;;;11.23;;
25657;SDS011;13517;59.320;18.042;2022-12-18T12:15:40;27.02;;;10.85;;
25657;SDS011;13517;59.320;18.042;2022-12-18T12:22:03;23.65;;;12.35;;
25657;SDS011;13517;59.320;18.042;2022-12-18T12:30:06;27.17;;;11.10;;
25657;SDS011;13517;59.320;18.042;2022-12-18T12:40:46;25.25;;;10.77;;
25657;SDS011;13517;59.320;18.042;2022-12-18T12:43:20;24.40;;;11.48;;
25657;SDS011;13517;59.320;18.042;2022-12-18T12:45:53;23.00;;;11.38;;
25657;SDS011;13517;59.320;18.042;2022-12-18T12:51:32;29.85;;;11.80;;
25657;SDS011;13517;59.320;18.042;2022-12-18T12:53:59;23.85;;;10.77;;
25657;SDS011;13517;59.320;18.042;2022-12-18T12:56:30;26.60;;;11.32;;
25657;SDS011;13517;59.320;18.042;2022-12-18T12:59:15;23.88;;;11.45;;
25657;SDS011;13517;59.320;18.042;2022-12-18T13:04:52;23.45;;;11.65;;
25657;SDS011;13517;59.320;18.042;2022-12-18T13:07:28;29.17;;;12.27;;
25657;SDS011;13517;59.320;18.042;2022-12-18T13:15:25;26.30;;;9.80;;
25657;SDS011;13517;59.320;18.042;2022-12-18T13:20:35;25.30;;;10.95;;
25657;SDS011;13517;59.320;18.042;2022-12-18T13:25:49;28.80;;;10.85;;
25657;SDS011;13517;59.320;18.042;2022-12-18T13:28:49;25.38;;;9.40;;
25657;SDS011;13517;59.320;18.042;2022-12-18T13:31:11;14.77;;;8.27;;
25657;SDS011;13517;59.320;18.042;2022-12-18T13:33:39;18.20;;;9.68;;
25657;SDS011;13517;59.320;18.042;2022-12-18T13:36:15;25.08;;;10.38;;
25657;SDS011;13517;59.320;18.042;2022-12-18T13:41:53;23.52;;;9.52;;
25657;SDS011;13517;59.320;18.042;2022-12-18T13:44:59;21.13;;;8.90;;
25657;SDS011;13517;59.320;18.042;2022-12-18T13:49:58;20.00;;;8.98;;
25657;SDS011;13517;59.320;18.042;2022-12-18T13:52:25;21.42;;;9.57;;
25657;SDS011;13517;59.320;18.042;2022-12-18T13:54:54;20.70;;;9.38;;
25657;SDS011;13517;59.320;18.042;2022-12-18T13:57:31;23.38;;;9.23;;
25657;SDS011;13517;59.320;18.042;2022-12-18T13:59:59;27.15;;;9.63;;
25657;SDS011;13517;59.320;18.042;2022-12-18T14:02:57;20.50;;;9.57;;
25657;SDS011;13517;59.320;18.042;2022-12-18T14:05:31;24.50;;;9.77;;
25657;SDS011;13517;59.320;18.042;2022-12-18T14:08:01;22.02;;;8.52;;
25657;SDS011;13517;59.320;18.042;2022-12-18T14:10:33;22.13;;;9.73;;
25657;SDS011;13517;59.320;18.042;2022-12-18T14:12:58;19.88;;;8.82;;
25657;SDS011;13517;59.320;18.042;2022-12-18T14:15:32;21.42;;;7.68;;
25657;SDS011;13517;59.320;18.042;2022-12-18T14:18:24;22.23;;;8.73;;
25657;SDS011;13517;59.320;18.042;2022-12-18T14:20:55;22.52;;;9.23;;
25657;SDS011;13517;59.320;18.042;2022-12-18T14:25:59;20.38;;;9.40;;
25657;SDS011;13517;59.320;18.042;2022-12-18T14:28:26;25.13;;;8.23;;
25657;SDS011;13517;59.320;18.042;2022-12-18T14:30:52;21.23;;;9.43;;
25657;SDS011;13517;59.320;18.042;2022-12-18T14:33:21;18.20;;;7.65;;
25657;SDS011;13517;59.320;18.042;2022-12-18T14:40:57;17.13;;;7.68;;
25657;SDS011;13517;59.320;18.042;2022-12-18T14:43:29;25.42;;;7.53;;
25657;SDS011;13517;59.320;18.042;2022-12-18T14:45:58;19.42;;;7.40;;
25657;SDS011;13517;59.320;18.042;2022-12-18T14:53:42;19.17;;;9.35;;
25657;SDS011;13517;59.320;18.042;2022-12-18T14:59:02;17.73;;;7.82;;
25657;SDS011;13517;59.320;18.042;2022-12-18T15:01:30;19.95;;;7.13;;
25657;SDS011;13517;59.320;18.042;2022-12-18T15:04:00;22.23;;;7.97;;
25657;SDS011;13517;59.320;18.042;2022-12-18T15:08:57;18.17;;;6.30;;
25657;SDS011;13517;59.320;18.042;2022-12-18T15:11:30;20.73;;;7.97;;
25657;SDS011;13517;59.320;18.042;2022-12-18T15:14:21;18.95;;;6.85;;
25657;SDS011;13517;59.320;18.042;2022-12-18T15:16:54;20.70;;;6.83;;
25657;SDS011;13517;59.320;18.042;2022-12-18T15:25:02;14.10;;;6.20;;
25657;SDS011;13517;59.320;18.042;2022-12-18T15:27:45;20.90;;;7.43;;
25657;SDS011;13517;59.320;18.042;2022-12-18T15:30:16;26.50;;;10.27;;
25657;SDS011;13517;59.320;18.042;2022-12-18T15:32:44;43.22;;;14.77;;
25657;SDS011;13517;59.320;18.042;2022-12-18T15:37:36;39.95;;;12.15;;
25657;SDS011;13517;59.320;18.042;2022-12-18T15:40:02;30.48;;;10.38;;
25657;SDS011;13517;59.320;18.042;2022-12-18T15:42:29;24.00;;;8.25;;
25657;SDS011;13517;59.320;18.042;2022-12-18T15:45:13;18.88;;;5.47;;
25657;SDS011;13517;59.320;18.042;2022-12-18T15:47:39;14.02;;;5.07;;
25657;SDS011;13517;59.320;18.042;2022-12-18T15:50:05;8.60;;;4.28;;
25657;SDS011;13517;59.320;18.042;2022-12-18T15:52:37;17.42;;;5.68;;
25657;SDS011;13517;59.320;18.042;2022-12-18T15:55:12;15.60;;;4.82;;
25657;SDS011;13517;59.320;18.042;2022-12-18T15:57:57;14.50;;;5.15;;
25657;SDS011;13517;59.320;18.042;2022-12-18T16:00:22;20.25;;;6.07;;
25657;SDS011;13517;59.320;18.042;2022-12-18T16:02:48;11.02;;;5.03;;
25657;SDS011;13517;59.320;18.042;2022-12-18T16:05:14;13.55;;;5.20;;
25657;SDS011;13517;59.320;18.042;2022-12-18T16:07:42;14.25;;;4.43;;
25657;SDS011;13517;59.320;18.042;2022-12-18T16:10:08;11.43;;;4.75;;
25657;SDS011;13517;59.320;18.042;2022-12-18T16:12:34;11.73;;;4.20;;
25657;SDS011;13517;59.320;18.042;2022-12-18T16:15:00;11.00;;;4.22;;
25657;SDS011;13517;59.320;18.042;2022-12-18T16:17:25;19.40;;;4.32;;
25657;SDS011;13517;59.320;18.042;2022-12-18T16:19:51;16.40;;;4.60;;
25657;SDS011;13517;59.320;18.042;2022-12-18T16:22:21;6.93;;;3.70;;
25657;SDS011;13517;59.320;18.042;2022-12-18T16:24:48;17.38;;;4.00;;
25657;SDS011;13517;59.320;18.042;2022-12-18T16:27:15;10.00;;;3.60;;
25657;SDS011;13517;59.320;18.042;2022-12-18T16:29:41;10.98;;;3.28;;
25657;SDS011;13517;59.320;18.042;2022-12-18T16:32:06;12.52;;;3.45;;
25657;SDS011;13517;59.320;18.042;2022-12-18T16:34:32;10.52;;;3.53;;
25657;SDS011;13517;59.320;18.042;2022-12-18T16:37:06;26.17;;;4.43;;
25657;SDS011;13517;59.320;18.042;2022-12-18T16:39:33;12.00;;;4.40;;